Time;durP1;ratioP1;P1;durP2;ratioP2;P2;SDS_P1;SDS_P2;PMS_P1;PMS_P2;Temp;Humidity;BMP_temperature;BMP_pressure;BME280_temperature;BME280_humidity;BME280_pressure;Samples;Min_cycle;Max_cycle;Signal;HPM_P1;HPM_P2
2021/10/30 00:00:31;;;;;;;;;;;;;;;21.43;32.85;98844.50;4959998;29;1019;-79
2021/10/30 00:02:56;;;;;;;;;;;;;;;21.79;33.24;98837.13;4959528;29;946;-79
2021/10/30 00:05:22;;;;;;;;;;;;;;;22.01;33.12;98843.28;4959232;29;1915;-78
2021/10/30 00:07:47;;;;;;;;;;;;;;;21.82;32.81;98841.97;4958974;29;868;-79
2021/10/30 00:10:13;;;;;;;;;;;;;;;21.78;32.87;98835.53;4958902;29;831;-79
2021/10/30 00:12:38;;;;;;;;;;;;;;;21.61;32.60;98836.59;4940264;29;943;-79
2021/10/30 00:15:04;;;;;;;;;;;;;;;21.53;32.91;98835.06;4939612;29;1066;-80
2021/10/30 00:17:29;;;;;;;;;;;;;;;21.59;32.85;98839.03;4954998;29;1063;-79
2021/10/30 00:19:55;;;;;;;;;;;;;;;21.46;33.28;98835.16;4944248;29;885;-79
2021/10/30 00:22:20;;;;;;;;;;;;;;;21.46;33.26;98840.84;4940501;29;982;-79
2021/10/30 00:24:45;;;;;;;;;;;;;;;21.44;33.28;98837.59;4966374;28;1907;-80
2021/10/30 00:27:12;;;;;;;;;;;;;;;21.46;33.09;98829.50;4979077;28;1022;-80
2021/10/30 00:29:38;;;;;;;;;;;;;;;21.46;32.67;98823.84;4981390;28;769;-79
2021/10/30 00:32:04;;;;;;;;;;;;;;;21.62;32.52;98826.84;4983010;28;813;-79
2021/10/30 00:34:30;;;;;;;;;;;;;;;21.58;32.73;98826.91;4980917;28;885;-79
2021/10/30 00:36:55;;;;;;;;;;;;;;;21.64;32.38;98817.94;4982606;28;795;-79
2021/10/30 00:39:20;;;;;;;;;;;;;;;21.74;32.98;98823.44;4981067;28;849;-79
2021/10/30 00:41:46;;;;;;;;;;;;;;;21.91;33.10;98820.78;4982438;28;799;-79
2021/10/30 00:44:12;;;;;;;;;;;;;;;22.14;32.72;98822.91;5007940;28;1985;-79
2021/10/30 00:46:40;;;;;;;;;;;;;;;21.85;32.39;98817.63;5002520;28;901;-79
2021/10/30 00:49:07;;;;;;;;;;;;;;;21.60;32.80;98815.13;5000766;28;933;-79
2021/10/30 00:51:33;;;;;;;;;;;;;;;21.55;32.77;98815.63;5002447;28;836;-79
2021/10/30 00:53:58;;;;;;;;;;;;;;;21.40;33.11;98808.53;4989059;28;799;-79
2021/10/30 00:56:24;;;;;;;;;;;;;;;21.51;33.00;98814.88;5041408;28;917;-79
2021/10/30 00:58:49;;;;;;;;;;;;;;;21.61;32.53;98816.75;5040636;28;845;-79
2021/10/30 01:01:15;;;;;;;;;;;;;;;21.52;32.75;98822.16;5024670;28;801;-79
2021/10/30 01:03:40;;;;;;;;;;;;;;;21.52;32.61;98820.13;5038872;28;1971;-79
2021/10/30 01:06:06;;;;;;;;;;;;;;;21.05;32.77;98751.16;5042179;28;928;-79
2021/10/30 01:08:31;;;;;;;;;;;;;;;21.46;32.66;98806.84;5038825;28;1101;-80
2021/10/30 01:10:57;;;;;;;;;;;;;;;21.54;32.70;98808.34;5042765;28;898;-79
2021/10/30 01:13:23;;;;;;;;;;;;;;;21.56;32.46;98811.56;5022510;28;901;-79
2021/10/30 01:15:49;;;;;;;;;;;;;;;21.52;32.68;98816.47;5041838;28;810;-79
2021/10/30 01:18:14;;;;;;;;;;;;;;;21.59;32.74;98813.53;5005501;28;1372;-79
2021/10/30 01:20:39;;;;;;;;;;;;;;;21.49;32.61;98811.66;5041333;28;783;-79
2021/10/30 01:23:05;;;;;;;;;;;;;;;21.65;33.54;98814.66;5039142;28;918;-79
2021/10/30 01:25:30;;;;;;;;;;;;;;;21.85;33.50;98812.75;5040108;28;1979;-79
2021/10/30 01:27:56;;;;;;;;;;;;;;;22.16;32.72;98812.72;5039911;28;965;-79
2021/10/30 01:30:22;;;;;;;;;;;;;;;21.92;32.29;98805.41;5000384;28;969;-78
2021/10/30 01:33:00;;;;;;;;;;;;;;;21.77;32.61;98811.28;5000571;28;855;-80
2021/10/30 01:35:35;;;;;;;;;;;;;;;21.81;32.05;98811.19;5001002;28;956;-79
2021/10/30 01:38:01;;;;;;;;;;;;;;;21.68;32.09;98813.81;4979872;28;920;-79
2021/10/30 01:40:27;;;;;;;;;;;;;;;21.49;32.49;98811.66;4925858;29;1040;-79
2021/10/30 01:43:02;;;;;;;;;;;;;;;21.47;32.82;98802.78;4923451;29;903;-79
2021/10/30 01:45:28;;;;;;;;;;;;;;;21.50;32.52;98814.09;4924227;29;1981;-79
2021/10/30 01:47:53;;;;;;;;;;;;;;;21.49;32.66;98806.00;4923084;29;780;-79
2021/10/30 01:50:19;;;;;;;;;;;;;;;21.46;32.51;98799.16;4923515;29;954;-79
2021/10/30 01:52:44;;;;;;;;;;;;;;;21.46;32.49;98807.66;4924155;29;897;-79
2021/10/30 01:55:10;;;;;;;;;;;;;;;21.58;33.40;98809.09;4922574;29;926;-79
2021/10/30 01:57:36;;;;;;;;;;;;;;;21.83;33.24;98803.88;4939582;29;916;-79
2021/10/30 02:00:02;;;;;;;;;;;;;;;22.19;32.35;98803.38;4906321;29;966;-79
2021/10/30 02:02:38;;;;;;;;;;;;;;;21.89;32.32;98801.38;4923245;29;976;-79
2021/10/30 02:05:06;;;;;;;;;;;;;;;21.66;32.62;98809.78;4921967;29;1983;-79
2021/10/30 02:07:32;;;;;;;;;;;;;;;21.60;32.52;98803.81;4923909;29;729;-79
2021/10/30 02:09:57;;;;;;;;;;;;;;;21.61;32.67;98811.09;4939061;29;945;-79
2021/10/30 02:12:23;;;;;;;;;;;;;;;21.46;32.90;98807.66;4994730;28;966;-79
2021/10/30 02:14:49;;;;;;;;;;;;;;;21.36;33.16;98807.81;5008799;28;938;-79
2021/10/30 02:17:14;;;;;;;;;;;;;;;21.43;32.95;98813.34;5040503;28;1253;-79
2021/10/30 02:19:40;;;;;;;;;;;;;;;21.42;32.93;98806.09;5038864;28;854;-79
2021/10/30 02:22:05;;;;;;;;;;;;;;;21.45;32.84;98810.88;5040434;28;798;-79
2021/10/30 02:24:32;;;;;;;;;;;;;;;21.64;32.60;98817.94;5037774;28;1905;-79
2021/10/30 02:26:58;;;;;;;;;;;;;;;21.50;32.82;98824.56;5040117;28;771;-79
2021/10/30 02:29:23;;;;;;;;;;;;;;;21.43;32.74;98819.03;5038413;28;962;-80
2021/10/30 02:31:49;;;;;;;;;;;;;;;21.41;32.67;98821.50;5040000;28;787;-79
2021/10/30 02:34:14;;;;;;;;;;;;;;;21.48;32.78;98824.22;5038498;28;873;-79
2021/10/30 02:36:39;;;;;;;;;;;;;;;21.73;33.26;98821.84;5039665;28;1064;-79
2021/10/30 02:39:05;;;;;;;;;;;;;;;21.96;33.18;98825.97;5037899;28;767;-79
2021/10/30 02:41:30;;;;;;;;;;;;;;;22.20;32.66;98816.31;5039769;28;782;-79
2021/10/30 02:43:56;;;;;;;;;;;;;;;21.94;32.26;98820.72;5037266;28;1918;-79
2021/10/30 02:46:21;;;;;;;;;;;;;;;21.67;32.61;98822.75;5040091;28;803;-79
2021/10/30 02:48:46;;;;;;;;;;;;;;;21.81;32.14;98828.19;5037173;28;916;-79
2021/10/30 02:51:12;;;;;;;;;;;;;;;21.71;32.19;98829.97;5040450;28;902;-78
2021/10/30 02:53:39;;;;;;;;;;;;;;;21.60;32.72;98823.63;5038617;28;827;-78
2021/10/30 02:56:05;;;;;;;;;;;;;;;21.49;32.72;98823.78;5041018;28;735;-78
2021/10/30 02:58:31;;;;;;;;;;;;;;;21.60;32.57;98817.97;5036157;28;961;-79
2021/10/30 03:00:57;;;;;;;;;;;;;;;21.54;32.95;98822.50;5039298;28;837;-78
2021/10/30 03:03:22;;;;;;;;;;;;;;;21.58;32.46;98826.09;5020062;28;1983;-79
2021/10/30 03:05:48;;;;;;;;;;;;;;;21.47;32.69;98814.91;5038703;28;747;-79
2021/10/30 03:08:13;;;;;;;;;;;;;;;21.43;32.93;98824.69;5036754;28;774;-79
2021/10/30 03:10:39;;;;;;;;;;;;;;;21.38;32.78;98822.31;5038276;28;703;-79
2021/10/30 03:13:04;;;;;;;;;;;;;;;21.32;33.17;98819.97;5036737;28;786;-79
2021/10/30 03:15:29;;;;;;;;;;;;;;;21.50;32.72;98824.56;5037723;28;709;-79
2021/10/30 03:17:55;;;;;;;;;;;;;;;21.51;32.44;98817.72;5037468;28;1112;-79
2021/10/30 03:20:20;;;;;;;;;;;;;;;21.55;32.61;98824.09;5037498;28;698;-78
2021/10/30 03:22:46;;;;;;;;;;;;;;;21.54;32.48;98822.50;5037507;28;771;-79
2021/10/30 03:25:11;;;;;;;;;;;;;;;21.38;32.75;98827.97;5036899;28;1902;-78
2021/10/30 03:27:37;;;;;;;;;;;;;;;21.65;33.63;98826.00;5037935;28;734;-79
2021/10/30 03:30:04;;;;;;;;;;;;;;;21.82;33.34;98818.50;4977159;28;1220;-79
2021/10/30 03:32:30;;;;;;;;;;;;;;;22.10;32.79;98828.59;4979035;28;806;-79
2021/10/30 03:34:55;;;;;;;;;;;;;;;21.78;32.78;98832.69;4961191;28;839;-79
2021/10/30 03:37:21;;;;;;;;;;;;;;;21.70;32.61;98822.69;4978784;28;787;-79
2021/10/30 03:39:46;;;;;;;;;;;;;;;21.70;32.63;98824.72;4977343;28;901;-78
2021/10/30 03:42:12;;;;;;;;;;;;;;;21.59;32.68;98822.03;4979095;28;736;-79
2021/10/30 03:44:38;;;;;;;;;;;;;;;21.53;32.97;98832.25;4977531;28;1910;-79
2021/10/30 03:47:04;;;;;;;;;;;;;;;21.60;32.63;98829.31;4979827;28;1295;-79
2021/10/30 03:49:29;;;;;;;;;;;;;;;21.52;32.88;98828.59;4958415;29;886;-79
2021/10/30 03:51:55;;;;;;;;;;;;;;;21.53;32.62;98829.41;4959643;29;864;-79
2021/10/30 03:54:20;;;;;;;;;;;;;;;21.40;33.03;98825.53;4957907;29;927;-78
2021/10/30 03:56:46;;;;;;;;;;;;;;;21.43;32.66;98833.19;4959124;29;1018;-79
2021/10/30 03:59:11;;;;;;;;;;;;;;;21.53;32.53;98835.06;4957764;29;887;-79
2021/10/30 04:01:36;;;;;;;;;;;;;;;21.42;32.88;98834.41;4974609;28;906;-79
2021/10/30 04:04:02;;;;;;;;;;;;;;;21.40;32.87;98831.19;4980617;28;1981;-79
2021/10/30 04:06:27;;;;;;;;;;;;;;;21.42;32.58;98828.75;4982737;28;1041;-79
2021/10/30 04:08:53;;;;;;;;;;;;;;;21.60;33.53;98834.97;4981183;28;800;-79
2021/10/30 04:11:19;;;;;;;;;;;;;;;21.81;33.38;98837.53;4983102;28;711;-79
2021/10/30 04:13:48;;;;;;;;;;;;;;;22.10;32.40;98829.41;4980948;28;876;-79
2021/10/30 04:16:14;;;;;;;;;;;;;;;21.90;32.55;98836.19;4934391;28;1149;-79
2021/10/30 04:18:39;;;;;;;;;;;;;;;21.76;32.25;98838.00;4980605;28;815;-79
2021/10/30 04:21:05;;;;;;;;;;;;;;;21.55;32.62;98829.78;4983440;28;986;-79
2021/10/30 04:23:30;;;;;;;;;;;;;;;21.65;32.31;98834.50;4980142;28;1983;-79
2021/10/30 04:25:55;;;;;;;;;;;;;;;21.44;32.91;98831.94;5013140;28;819;-79
2021/10/30 04:28:21;;;;;;;;;;;;;;;21.62;32.38;98826.84;5019361;28;872;-79
2021/10/30 04:30:47;;;;;;;;;;;;;;;21.62;32.64;98832.53;5022146;28;989;-79
2021/10/30 04:33:15;;;;;;;;;;;;;;;21.54;32.62;98831.00;5019319;28;842;-79
2021/10/30 04:35:42;;;;;;;;;;;;;;;21.57;32.79;98830.16;5021560;28;803;-78
2021/10/30 04:38:07;;;;;;;;;;;;;;;21.40;32.89;98831.19;5020480;28;1130;-78
2021/10/30 04:40:33;;;;;;;;;;;;;;;21.44;32.98;98835.56;5021566;28;810;-79
2021/10/30 04:42:58;;;;;;;;;;;;;;;21.51;32.84;98827.00;5020440;28;759;-79
2021/10/30 04:45:23;;;;;;;;;;;;;;;21.52;32.70;98828.59;5020938;28;2028;-78
2021/10/30 04:47:49;;;;;;;;;;;;;;;21.46;32.47;98830.31;4981538;28;881;-78
2021/10/30 04:50:14;;;;;;;;;;;;;;;21.51;32.58;98826.22;4981393;28;795;-78
2021/10/30 04:52:40;;;;;;;;;;;;;;;21.60;32.61;98829.31;4981798;28;938;-79
2021/10/30 04:55:06;;;;;;;;;;;;;;;21.58;32.25;98826.91;4980794;28;973;-79
2021/10/30 04:57:31;;;;;;;;;;;;;;;21.59;32.54;98836.19;4981680;28;791;-79
2021/10/30 04:59:56;;;;;;;;;;;;;;;21.51;32.49;98840.38;4961379;28;943;-79
2021/10/30 05:02:22;;;;;;;;;;;;;;;21.58;32.53;98834.59;4962177;28;846;-79
2021/10/30 05:04:48;;;;;;;;;;;;;;;21.58;32.30;98831.75;4961395;28;1993;-79
2021/10/30 05:07:13;;;;;;;;;;;;;;;21.53;33.36;98837.91;4978737;28;823;-78
2021/10/30 05:09:39;;;;;;;;;;;;;;;21.81;33.52;98836.69;4961165;28;823;-79
2021/10/30 05:12:04;;;;;;;;;;;;;;;22.05;33.17;98832.69;4962351;28;842;-79
2021/10/30 05:14:30;;;;;;;;;;;;;;;21.78;32.91;98841.19;4959382;28;840;-79
2021/10/30 05:16:55;;;;;;;;;;;;;;;21.70;32.87;98833.22;4961969;28;1218;-79
2021/10/30 05:19:21;;;;;;;;;;;;;;;21.60;32.64;98840.63;4974370;28;779;-79
2021/10/30 05:21:46;;;;;;;;;;;;;;;21.71;32.16;98841.31;4981783;28;870;-79
2021/10/30 05:24:12;;;;;;;;;;;;;;;21.64;32.70;98829.25;4980093;28;1977;-78
2021/10/30 05:26:38;;;;;;;;;;;;;;;21.56;32.87;98834.22;4981043;28;975;-79
2021/10/30 05:29:03;;;;;;;;;;;;;;;21.53;32.74;98835.06;4979734;28;893;-79
2021/10/30 05:31:29;;;;;;;;;;;;;;;21.54;32.67;98831.00;5010241;28;831;-79
2021/10/30 05:33:54;;;;;;;;;;;;;;;21.55;32.79;98838.25;5018990;28;953;-79
2021/10/30 05:36:28;;;;;;;;;;;;;;;21.49;32.75;98839.97;5020426;28;917;-79
2021/10/30 05:39:00;;;;;;;;;;;;;;;21.56;32.69;98828.56;5019461;28;1062;-79
2021/10/30 05:41:26;;;;;;;;;;;;;;;21.54;32.75;98836.66;5020763;28;925;-79
2021/10/30 05:43:51;;;;;;;;;;;;;;;21.51;32.85;98837.53;5002838;28;1963;-79
2021/10/30 05:46:17;;;;;;;;;;;;;;;21.57;32.72;98841.50;5004139;28;875;-79
2021/10/30 05:48:43;;;;;;;;;;;;;;;21.97;33.09;98833.25;5328230;23;3955;-76
2021/10/30 05:51:08;;;;;;;;;;;;;;;22.59;32.83;98829.03;5083404;28;797;-79
2021/10/30 05:53:34;;;;;;;;;;;;;;;22.08;32.79;98833.88;5078133;28;1239;-79
2021/10/30 05:55:59;;;;;;;;;;;;;;;21.87;33.78;98849.19;5219562;22;3764;-79
2021/10/30 05:58:25;;;;;;;;;;;;;;;22.56;32.67;98842.03;5038363;28;944;-79
2021/10/30 06:00:50;;;;;;;;;;;;;;;22.23;32.46;98843.00;5023889;28;950;-79
2021/10/30 06:03:16;;;;;;;;;;;;;;;21.89;32.87;98854.41;5038024;28;829;-79
2021/10/30 06:05:41;;;;;;;;;;;;;;;21.88;32.08;98855.66;5040561;28;1910;-79
2021/10/30 06:08:07;;;;;;;;;;;;;;;21.70;32.39;98855.88;5038697;28;813;-79
2021/10/30 06:10:34;;;;;;;;;;;;;;;21.94;32.37;98854.72;5040920;28;849;-79
2021/10/30 06:12:59;;;;;;;;;;;;;;;21.83;32.95;98857.72;5038659;28;854;-79
2021/10/30 06:15:25;;;;;;;;;;;;;;;21.85;33.35;98857.28;5039274;28;742;-79
2021/10/30 06:17:50;;;;;;;;;;;;;;;21.89;32.85;98857.25;4999616;28;1188;-79
2021/10/30 06:20:16;;;;;;;;;;;;;;;21.61;32.94;98853.59;5000075;28;854;-79
2021/10/30 06:22:44;;;;;;;;;;;;;;;21.57;32.79;98858.47;4999952;28;801;-79
2021/10/30 06:25:12;;;;;;;;;;;;;;;21.49;32.72;98856.97;4999259;28;1911;-79
2021/10/30 06:27:38;;;;;;;;;;;;;;;21.46;32.44;98858.63;4961670;28;979;-79
2021/10/30 06:30:05;;;;;;;;;;;;;;;21.56;32.32;98863.34;4975010;28;863;-79
2021/10/30 06:32:30;;;;;;;;;;;;;;;21.69;32.21;98863.56;4980704;28;942;-79
2021/10/30 06:34:55;;;;;;;;;;;;;;;21.61;32.37;98864.91;4979718;28;798;-79
2021/10/30 06:37:21;;;;;;;;;;;;;;;21.50;32.51;98867.06;4978918;28;988;-79
2021/10/30 06:39:46;;;;;;;;;;;;;;;21.50;32.59;98864.22;4960743;29;1001;-79
2021/10/30 06:42:12;;;;;;;;;;;;;;;21.45;32.81;98867.53;4961553;29;886;-79
2021/10/30 06:44:38;;;;;;;;;;;;;;;21.56;32.74;98862.56;4976344;28;1907;-79
2021/10/30 06:47:03;;;;;;;;;;;;;;;21.45;32.78;98870.34;4961935;29;976;-79
2021/10/30 06:49:29;;;;;;;;;;;;;;;21.59;32.42;98861.69;4989760;28;907;-79
2021/10/30 06:51:55;;;;;;;;;;;;;;;21.56;32.28;98863.34;5000684;28;778;-79
2021/10/30 06:54:20;;;;;;;;;;;;;;;21.47;32.55;98860.22;4999088;28;1012;-79
2021/10/30 06:56:46;;;;;;;;;;;;;;;21.48;32.66;98866.69;4999751;28;1242;-79
2021/10/30 06:59:11;;;;;;;;;;;;;;;21.46;32.58;98869.16;4998767;28;758;-78
2021/10/30 07:01:36;;;;;;;;;;;;;;;21.57;32.67;98862.13;5029489;28;923;-79
2021/10/30 07:04:02;;;;;;;;;;;;;;;21.50;32.75;98859.38;5038193;28;1964;-79
2021/10/30 07:06:28;;;;;;;;;;;;;;;21.50;32.44;98855.72;5039933;28;880;-80
2021/10/30 07:08:56;;;;;;;;;;;;;;;21.53;32.71;98869.84;5041532;28;916;-79
2021/10/30 07:11:22;;;;;;;;;;;;;;;21.49;32.72;98856.97;5081899;28;859;-79
2021/10/30 07:13:47;;;;;;;;;;;;;;;21.48;32.82;98856.16;5079147;28;709;-79
2021/10/30 07:16:15;;;;;;;;;;;;;;;21.42;32.89;98862.72;5081737;28;729;-79
2021/10/30 07:18:41;;;;;;;;;;;;;;;21.52;32.84;98868.25;5079575;28;905;-79
2021/10/30 07:21:06;;;;;;;;;;;;;;;21.52;32.49;98873.13;5045903;28;997;-79
2021/10/30 07:23:31;;;;;;;;;;;;;;;21.78;32.81;98868.72;5077091;28;1975;-79
2021/10/30 07:25:57;;;;;;;;;;;;;;;21.81;33.64;98871.53;5080193;28;951;-79
2021/10/30 07:28:23;;;;;;;;;;;;;;;22.04;33.15;98875.66;5077012;28;769;-79
2021/10/30 07:30:48;;;;;;;;;;;;;;;21.79;33.26;98876.78;5079550;28;943;-79
2021/10/30 07:33:13;;;;;;;;;;;;;;;21.63;33.25;98882.28;5077631;28;808;-79
2021/10/30 07:35:39;;;;;;;;;;;;;;;21.61;32.85;98864.13;5079210;28;848;-79
2021/10/30 07:38:04;;;;;;;;;;;;;;;21.57;32.74;98881.13;5060215;28;1006;-79
2021/10/30 07:40:32;;;;;;;;;;;;;;;21.47;32.92;98876.41;5078729;28;805;-79
2021/10/30 07:42:58;;;;;;;;;;;;;;;21.38;33.01;98871.25;5078364;28;850;-79
2021/10/30 07:45:24;;;;;;;;;;;;;;;21.62;33.27;98877.84;5079055;28;1914;-79
2021/10/30 07:47:50;;;;;;;;;;;;;;;21.83;33.89;98880.38;5058118;28;938;-79
2021/10/30 07:50:15;;;;;;;;;;;;;;;22.06;33.28;98868.31;5057728;28;816;-79
2021/10/30 07:52:40;;;;;;;;;;;;;;;21.83;33.22;98871.88;5043179;28;770;-79
2021/10/30 07:55:06;;;;;;;;;;;;;;;21.68;33.08;98875.34;5037626;28;1126;-79
2021/10/30 07:57:32;;;;;;;;;;;;;;;21.70;32.89;98873.66;5039153;28;1187;-79
2021/10/30 07:59:57;;;;;;;;;;;;;;;21.59;32.57;98867.34;5037831;28;941;-79
2021/10/30 08:02:23;;;;;;;;;;;;;;;21.56;32.76;98873.88;5038964;28;900;-79
2021/10/30 08:04:48;;;;;;;;;;;;;;;21.54;32.74;98877.09;5036849;28;1906;-79
2021/10/30 08:07:14;;;;;;;;;;;;;;;21.47;32.89;98876.41;5038997;28;881;-79
2021/10/30 08:09:40;;;;;;;;;;;;;;;21.62;32.62;98875.00;5037251;28;806;-79
2021/10/30 08:12:05;;;;;;;;;;;;;;;21.58;32.59;98872.22;5038988;28;1083;-79
2021/10/30 08:14:31;;;;;;;;;;;;;;;21.45;32.99;98867.53;5037255;28;944;-79
2021/10/30 08:16:56;;;;;;;;;;;;;;;21.47;32.66;98871.53;5039043;28;851;-79
2021/10/30 08:19:22;;;;;;;;;;;;;;;21.56;32.35;98873.88;5066526;28;821;-79
2021/10/30 08:21:47;;;;;;;;;;;;;;;21.45;32.81;98867.53;5078770;28;883;-79
2021/10/30 08:24:13;;;;;;;;;;;;;;;21.42;32.85;98874.03;5077348;28;1905;-79
2021/10/30 08:26:39;;;;;;;;;;;;;;;21.67;33.43;98868.88;5079309;28;891;-79
2021/10/30 08:29:05;;;;;;;;;;;;;;;21.89;33.54;98875.03;5076946;28;754;-79
2021/10/30 08:31:30;;;;;;;;;;;;;;;22.10;33.06;98882.44;5078299;28;836;-79
2021/10/30 08:33:57;;;;;;;;;;;;;;;21.78;33.16;98880.84;5077122;28;821;-79
2021/10/30 08:36:23;;;;;;;;;;;;;;;21.73;32.82;98883.38;5078725;28;706;-79
2021/10/30 08:38:48;;;;;;;;;;;;;;;21.63;32.71;98873.78;5077090;28;845;-79
2021/10/30 08:41:14;;;;;;;;;;;;;;;21.67;32.81;98874.53;5079627;28;817;-79
2021/10/30 08:43:39;;;;;;;;;;;;;;;21.55;32.99;98883.56;5078193;28;1906;-79
2021/10/30 08:46:05;;;;;;;;;;;;;;;21.44;33.01;98883.72;5039300;28;808;-79
2021/10/30 08:48:31;;;;;;;;;;;;;;;21.43;33.19;98873.63;5036200;28;886;-79
2021/10/30 08:50:57;;;;;;;;;;;;;;;21.47;32.86;98876.41;5042254;28;731;-79
2021/10/30 08:53:22;;;;;;;;;;;;;;;21.42;32.81;98874.84;4981078;28;888;-79
2021/10/30 08:55:48;;;;;;;;;;;;;;;21.74;33.60;98871.59;4983422;28;1441;-79
2021/10/30 08:58:14;;;;;;;;;;;;;;;22.04;33.31;98869.97;4981095;28;830;-79
2021/10/30 09:00:43;;;;;;;;;;;;;;;22.16;32.96;98866.56;4982759;28;794;-79
2021/10/30 09:03:10;;;;;;;;;;;;;;;21.88;32.83;98869.81;4980666;28;907;-79
2021/10/30 09:05:35;;;;;;;;;;;;;;;21.82;32.70;98870.28;4967365;28;1985;-79
2021/10/30 09:08:02;;;;;;;;;;;;;;;21.63;32.99;98862.44;4981704;28;924;-79
2021/10/30 09:10:32;;;;;;;;;;;;;;;21.52;32.85;98867.44;4982839;28;790;-79
2021/10/30 09:12:58;;;;;;;;;;;;;;;21.53;32.73;98869.03;4923764;29;918;-79
2021/10/30 09:15:33;;;;;;;;;;;;;;;21.46;32.90;98867.13;4924379;29;857;-78
2021/10/30 09:17:58;;;;;;;;;;;;;;;21.44;32.86;98861.06;4957049;29;895;-80
2021/10/30 09:20:31;;;;;;;;;;;;;;;21.40;32.82;98854.66;4962833;29;692;-79
2021/10/30 09:22:56;;;;;;;;;;;;;;;21.53;32.53;98869.03;4886336;29;915;-79
2021/10/30 09:25:21;;;;;;;;;;;;;;;21.45;32.61;98857.03;4904090;29;1923;-79
2021/10/30 09:27:50;;;;;;;;;;;;;;;21.50;33.15;98859.38;4905528;29;894;-79
2021/10/30 09:30:17;;;;;;;;;;;;;;;21.92;33.35;98864.91;4905552;29;812;-79
2021/10/30 09:32:52;;;;;;;;;;;;;;;22.10;33.08;98856.94;4905278;29;903;-79
2021/10/30 09:35:29;;;;;;;;;;;;;;;21.88;32.94;98855.66;4905131;29;975;-79
2021/10/30 09:37:55;;;;;;;;;;;;;;;21.70;33.09;98851.00;4904367;29;935;-79
2021/10/30 09:40:21;;;;;;;;;;;;;;;21.70;32.64;98862.34;4886736;29;900;-79
2021/10/30 09:42:48;;;;;;;;;;;;;;;21.66;32.64;98847.44;4888366;28;995;-79
2021/10/30 09:45:14;;;;;;;;;;;;;;;21.53;32.71;98852.06;4961415;29;1914;-79
2021/10/30 09:47:44;;;;;;;;;;;;;;;21.55;32.73;98843.94;4962854;29;967;-79
2021/10/30 09:50:22;;;;;;;;;;;;;;;21.57;32.92;98847.16;4904523;29;963;-79
2021/10/30 09:52:48;;;;;;;;;;;;;;;21.55;32.96;98843.94;4904798;29;867;-79
2021/10/30 09:55:21;;;;;;;;;;;;;;;21.59;32.78;98833.38;4904590;29;1163;-79
2021/10/30 09:57:46;;;;;;;;;;;;;;;21.57;32.41;98833.81;4905245;29;838;-79
2021/10/30 10:00:12;;;;;;;;;;;;;;;21.56;32.54;98832.19;4912397;29;914;-79
2021/10/30 10:02:38;;;;;;;;;;;;;;;21.79;33.19;98825.81;4939393;29;878;-79
2021/10/30 10:05:03;;;;;;;;;;;;;;;21.96;33.20;98817.47;4938452;29;1907;-79
2021/10/30 10:07:29;;;;;;;;;;;;;;;22.15;32.92;98816.78;4940016;29;1018;-79
2021/10/30 10:09:54;;;;;;;;;;;;;;;21.87;32.81;98820.06;4938300;29;946;-79
2021/10/30 10:12:20;;;;;;;;;;;;;;;21.62;33.11;98815.53;4905310;29;957;-79
2021/10/30 10:14:45;;;;;;;;;;;;;;;21.62;32.88;98815.53;4916049;29;1384;-79
2021/10/30 10:17:11;;;;;;;;;;;;;;;21.57;32.94;98808.31;4956005;28;942;-79
2021/10/30 10:19:37;;;;;;;;;;;;;;;21.58;32.83;98804.25;5000033;28;890;-79
2021/10/30 10:22:02;;;;;;;;;;;;;;;21.58;32.61;98797.78;5035927;28;927;-79
2021/10/30 10:24:32;;;;;;;;;;;;;;;21.55;32.43;98793.78;5039003;28;1980;-79
2021/10/30 10:26:57;;;;;;;;;;;;;;;21.51;32.51;98792.22;5020593;28;886;-79
2021/10/30 10:29:41;;;;;;;;;;;;;;;21.54;32.43;98792.16;5018800;28;827;-79
2021/10/30 10:32:10;;;;;;;;;;;;;;;21.42;32.67;98777.78;5020023;28;947;-79
2021/10/30 10:34:36;;;;;;;;;;;;;;;21.58;32.59;98780.78;5021910;28;993;-79
2021/10/30 10:37:10;;;;;;;;;;;;;;;21.66;33.47;98775.81;5020637;28;915;-79
2021/10/30 10:39:36;;;;;;;;;;;;;;;21.85;33.85;98778.75;5018517;28;865;-79
2021/10/30 10:42:01;;;;;;;;;;;;;;;21.92;32.97;98771.41;5019912;28;857;-79
2021/10/30 10:44:27;;;;;;;;;;;;;;;21.77;32.90;98770.81;4979326;28;1886;-79
2021/10/30 10:47:01;;;;;;;;;;;;;;;21.62;32.66;98770.22;4981211;28;893;-79
2021/10/30 10:49:37;;;;;;;;;;;;;;;21.68;32.34;98765.66;4998634;28;849;-79
2021/10/30 10:52:06;;;;;;;;;;;;;;;21.74;32.20;98766.78;5000957;28;749;-79
2021/10/30 10:54:50;;;;;;;;;;;;;;;21.54;32.54;98768.69;4998995;28;774;-79
2021/10/30 10:57:19;;;;;;;;;;;;;;;21.57;32.51;98757.34;4990703;28;1222;-79
2021/10/30 10:59:45;;;;;;;;;;;;;;;21.60;32.44;98755.66;4959825;29;886;-79
2021/10/30 11:02:14;;;;;;;;;;;;;;;21.43;32.51;98746.22;4960979;29;895;-79
2021/10/30 11:04:40;;;;;;;;;;;;;;;21.75;33.33;98750.59;4959639;29;1894;-79
2021/10/30 11:07:10;;;;;;;;;;;;;;;21.89;33.33;98761.72;4961276;29;842;-79
2021/10/30 11:09:45;;;;;;;;;;;;;;;21.99;32.79;98760.75;4960088;29;853;-78
2021/10/30 11:12:22;;;;;;;;;;;;;;;21.74;32.78;98761.13;4969694;28;899;-79
2021/10/30 11:14:53;;;;;;;;;;;;;;;21.67;32.56;98749.91;5018067;28;932;-79
2021/10/30 11:17:22;;;;;;;;;;;;;;;21.65;32.72;98752.34;5020252;28;841;-79
2021/10/30 11:19:48;;;;;;;;;;;;;;;21.60;32.31;98752.84;5018106;28;925;-79
2021/10/30 11:22:15;;;;;;;;;;;;;;;21.63;32.23;98742.69;5042991;28;814;-79
2021/10/30 11:24:48;;;;;;;;;;;;;;;21.49;32.59;98740.88;5057670;28;1919;-79
2021/10/30 11:27:14;;;;;;;;;;;;;;;21.45;32.87;98731.63;5059487;28;796;-79
2021/10/30 11:29:46;;;;;;;;;;;;;;;21.56;32.59;98737.94;5057829;28;803;-79
2021/10/30 11:32:12;;;;;;;;;;;;;;;21.54;32.26;98729.06;5019195;28;1019;-80
2021/10/30 11:34:37;;;;;;;;;;;;;;;21.61;32.27;98739.50;5017918;28;866;-79
2021/10/30 11:37:03;;;;;;;;;;;;;;;21.43;32.82;98736.91;5018992;28;824;-79
2021/10/30 11:39:29;;;;;;;;;;;;;;;21.43;32.67;98729.22;5017740;28;809;-79
2021/10/30 11:41:55;;;;;;;;;;;;;;;21.66;33.29;98725.66;5019348;28;888;-79
2021/10/30 11:44:22;;;;;;;;;;;;;;;22.10;33.27;98732.22;5018162;28;1918;-79
2021/10/30 11:46:48;;;;;;;;;;;;;;;21.96;32.60;98733.25;5002383;28;933;-78
2021/10/30 11:49:27;;;;;;;;;;;;;;;21.77;32.77;98726.28;5017957;28;798;-79
2021/10/30 11:51:52;;;;;;;;;;;;;;;21.75;32.58;98723.06;4960859;29;938;-79
2021/10/30 11:54:19;;;;;;;;;;;;;;;21.70;32.48;98719.91;4921732;29;1053;-79
2021/10/30 11:56:45;;;;;;;;;;;;;;;21.62;32.77;98713.59;4885431;29;1117;-79
2021/10/30 11:59:10;;;;;;;;;;;;;;;21.65;32.46;98718.38;4884398;29;945;-79
2021/10/30 12:01:39;;;;;;;;;;;;;;;21.61;32.31;98711.97;4885511;29;847;-79
2021/10/30 12:04:05;;;;;;;;;;;;;;;21.51;32.54;98712.94;4899873;29;1887;-79
2021/10/30 12:06:31;;;;;;;;;;;;;;;21.62;32.53;98710.75;4866735;29;914;-79
2021/10/30 12:08:57;;;;;;;;;;;;;;;21.59;32.54;98717.25;4846397;29;996;-79
2021/10/30 12:11:23;;;;;;;;;;;;;;;21.55;32.25;98713.66;4848578;29;895;-80
2021/10/30 12:13:50;;;;;;;;;;;;;;;21.63;32.19;98715.19;4846572;29;891;-79
2021/10/30 12:16:15;;;;;;;;;;;;;;;21.51;32.22;98719.41;4832138;29;927;-79
2021/10/30 12:18:41;;;;;;;;;;;;;;;21.58;32.41;98712.81;4827683;29;1179;-79
2021/10/30 12:21:08;;;;;;;;;;;;;;;21.46;32.25;98714.22;4830251;29;994;-79
2021/10/30 12:23:33;;;;;;;;;;;;;;;21.56;32.53;98716.09;4871625;29;899;-79
2021/10/30 12:26:02;;;;;;;;;;;;;;;21.82;33.27;98722.97;4918881;29;1976;-79
2021/10/30 12:28:32;;;;;;;;;;;;;;;21.96;33.13;98709.78;4950116;29;1128;-79
2021/10/30 12:30:58;;;;;;;;;;;;;;;21.99;32.87;98712.56;4964880;29;987;-79
2021/10/30 12:33:23;;;;;;;;;;;;;;;21.74;32.86;98715.00;4961538;29;914;-79
2021/10/30 12:35:50;;;;;;;;;;;;;;;21.71;32.59;98716.69;4964739;29;851;-79
2021/10/30 12:38:16;;;;;;;;;;;;;;;21.64;32.38;98711.09;4973983;28;1231;-79
2021/10/30 12:40:44;;;;;;;;;;;;;;;21.73;32.22;98719.06;5015536;28;1082;-79
2021/10/30 12:43:11;;;;;;;;;;;;;;;21.65;32.55;98715.53;5020742;28;995;-79
2021/10/30 12:45:38;;;;;;;;;;;;;;;21.62;32.51;98712.78;5021732;28;1906;-79
2021/10/30 12:48:13;;;;;;;;;;;;;;;21.55;32.60;98708.84;5020855;28;975;-79
2021/10/30 12:50:38;;;;;;;;;;;;;;;21.59;32.34;98712.38;5022129;28;941;-79
2021/10/30 12:53:04;;;;;;;;;;;;;;;21.43;32.39;98711.44;5020729;28;933;-79
2021/10/30 12:55:29;;;;;;;;;;;;;;;21.38;32.52;98712.72;5021652;28;1675;-79
2021/10/30 12:57:58;;;;;;;;;;;;;;;21.51;33.33;98707.28;5021076;28;956;-79
2021/10/30 13:00:24;;;;;;;;;;;;;;;21.91;33.41;98718.78;5021198;28;878;-79